Time;durP1;ratioP1;P1;durP2;ratioP2;P2;SDS_P1;SDS_P2;PMS_P1;PMS_P2;Temp;Humidity;BMP_temperature;BMP_pressure;BME280_temperature;BME280_humidity;BME280_pressure;Samples;Min_cycle;Max_cycle;Signal;HPM_P1;HPM_P2
2023/06/01 00:01:52;;;;;;;26.40;15.07;;;11.50;40.10;;;;;;5004121;28;20453;-56
2023/06/01 00:04:17;;;;;;;21.20;11.93;;;11.50;96.20;;;;;;5010327;28;20187;-55
2023/06/01 00:06:44;;;;;;;30.90;13.20;;;11.50;99.90;;;;;;5009126;28;20189;-55
2023/06/01 00:09:09;;;;;;;22.67;11.57;;;11.50;40.70;;;;;;5012312;28;20200;-55
2023/06/01 00:11:35;;;;;;;21.57;11.53;;;11.50;98.10;;;;;;5007182;28;20501;-55
2023/06/01 00:14:02;;;;;;;18.60;10.30;;;11.60;90.80;;;;;;5007327;28;20233;-55
2023/06/01 00:16:30;;;;;;;18.30;10.20;;;11.60;1.00;;;;;;5006740;28;20451;-56
2023/06/01 00:18:57;;;;;;;16.20;10.30;;;11.60;1.00;;;;;;5003331;28;20444;-55
2023/06/01 00:21:23;;;;;;;23.00;10.00;;;11.50;1.00;;;;;;5012147;28;20441;-55
2023/06/01 00:23:49;;;;;;;23.03;10.83;;;11.50;1.00;;;;;;5005783;28;20446;-55
2023/06/01 00:26:15;;;;;;;14.63;9.10;;;11.50;1.00;;;;;;5007966;28;20426;-56
2023/06/01 00:28:41;;;;;;;24.10;12.43;;;11.50;1.00;;;;;;5008870;28;20603;-55
2023/06/01 00:31:06;;;;;;;26.97;11.27;;;11.50;1.00;;;;;;5010443;28;20465;-56
2023/06/01 00:33:32;;;;;;;22.17;10.57;;;11.50;1.00;;;;;;5004623;28;20188;-56
2023/06/01 00:35:57;;;;;;;16.37;8.80;;;11.50;1.00;;;;;;5001565;28;20256;-56
2023/06/01 00:38:23;;;;;;;19.67;8.80;;;11.60;1.00;;;;;;5013689;28;20274;-55
2023/06/01 00:40:50;;;;;;;17.73;8.97;;;11.50;1.00;;;;;;5009063;28;20184;-56
2023/06/01 00:43:16;;;;;;;20.30;8.50;;;11.60;1.00;;;;;;5011554;28;20642;-56
2023/06/01 00:45:41;;;;;;;16.07;8.93;;;11.60;1.00;;;;;;5010420;28;20467;-56
2023/06/01 00:48:07;;;;;;;20.90;10.07;;;11.60;1.00;;;;;;5005489;28;20270;-55
2023/06/01 00:50:33;;;;;;;15.33;7.70;;;11.60;1.00;;;;;;5010109;28;20316;-55
2023/06/01 00:53:02;;;;;;;16.60;8.00;;;11.60;1.00;;;;;;5006614;28;20183;-55
2023/06/01 00:55:28;;;;;;;22.70;8.07;;;11.60;1.00;;;;;;5009796;28;20487;-56
2023/06/01 00:57:55;;;;;;;13.93;7.13;;;11.60;1.00;;;;;;5015488;28;20443;-56
2023/06/01 01:00:22;;;;;;;15.83;6.77;;;11.60;1.00;;;;;;5011242;28;20179;-55
2023/06/01 01:02:48;;;;;;;18.47;7.00;;;11.50;1.00;;;;;;5008904;28;20607;-55
2023/06/01 01:05:15;;;;;;;20.77;7.07;;;11.50;1.00;;;;;;5004509;28;20449;-56
2023/06/01 01:07:47;;;;;;;13.83;6.50;;;11.50;1.00;;;;;;5008534;28;20448;-55
2023/06/01 01:10:32;;;;;;;15.70;6.80;;;11.60;1.00;;;;;;5006873;28;20861;-56
2023/06/01 01:13:10;;;;;;;12.17;6.00;;;11.50;1.00;;;;;;5005210;28;20451;-56
2023/06/01 01:15:43;;;;;;;14.70;6.63;;;11.60;1.00;;;;;;5004059;28;20560;-56
2023/06/01 01:18:34;;;;;;;13.70;6.50;;;11.60;1.00;;;;;;5002162;28;20452;-55
2023/06/01 01:21:03;;;;;;;20.53;6.43;;;11.60;1.00;;;;;;5007243;28;20439;-55
2023/06/01 01:24:09;;;;;;;12.97;6.20;;;11.60;99.90;;;;;;5009693;28;20436;-55
2023/06/01 01:26:59;;;;;;;24.83;6.47;;;11.50;99.90;;;;;;5003299;28;20455;-55
2023/06/01 01:29:26;;;;;;;14.83;6.23;;;11.50;99.90;;;;;;5007009;28;20498;-54
2023/06/01 01:31:54;;;;;;;20.00;6.93;;;11.50;99.90;;;;;;5007545;28;20937;-55
2023/06/01 01:34:20;;;;;;;17.47;6.20;;;11.60;99.90;;;;;;5005920;28;20939;-54
2023/06/01 01:36:47;;;;;;;23.50;7.20;;;11.50;99.90;;;;;;5003440;28;20573;-54
2023/06/01 01:39:12;;;;;;;19.77;6.60;;;11.40;99.90;;;;;;5008714;28;20946;-54
2023/06/01 01:41:38;;;;;;;13.73;7.00;;;11.40;99.90;;;;;;5007841;28;20470;-55
2023/06/01 01:44:05;;;;;;;13.57;6.20;;;11.50;99.90;;;;;;5008761;28;20190;-55
2023/06/01 01:46:38;;;;;;;18.83;6.87;;;11.50;99.90;;;;;;5002471;28;20197;-56
2023/06/01 01:49:25;;;;;;;25.87;7.30;;;11.50;99.90;;;;;;5008553;28;20440;-55
2023/06/01 01:52:15;;;;;;;18.13;6.10;;;11.40;99.90;;;;;;5005517;28;20846;-55
2023/06/01 01:54:46;;;;;;;12.90;6.10;;;11.40;99.90;;;;;;5011662;28;20567;-55
2023/06/01 01:57:16;;;;;;;19.97;6.70;;;11.50;99.90;;;;;;5000464;28;20684;-55
2023/06/01 01:59:43;;;;;;;16.10;6.20;;;11.50;99.90;;;;;;5007709;28;20445;-55
2023/06/01 02:02:10;;;;;;;13.57;6.50;;;11.50;99.90;;;;;;5006992;28;20544;-55
2023/06/01 02:04:43;;;;;;;19.60;6.43;;;11.40;99.90;;;;;;5005373;28;20621;-55
2023/06/01 02:07:09;;;;;;;13.10;6.13;;;11.30;99.90;;;;;;5007465;28;20189;-55
2023/06/01 02:09:36;;;;;;;16.23;6.30;;;11.40;99.90;;;;;;5009485;28;20811;-55
2023/06/01 02:12:01;;;;;;;15.20;6.37;;;11.40;99.90;;;;;;5005295;28;20859;-55
2023/06/01 02:14:28;;;;;;;24.10;8.40;;;11.40;99.90;;;;;;5002689;28;20530;-55
2023/06/01 02:16:53;;;;;;;16.90;7.13;;;11.30;99.90;;;;;;5002062;28;20451;-55
2023/06/01 02:19:20;;;;;;;16.47;7.17;;;11.30;99.90;;;;;;5009705;28;20446;-55
2023/06/01 02:21:46;;;;;;;23.27;8.10;;;11.30;99.90;;;;;;5002662;28;20184;-55
2023/06/01 02:24:12;;;;;;;14.67;5.80;;;11.30;99.90;;;;;;5004718;28;20791;-55
2023/06/01 02:26:38;;;;;;;15.17;6.60;;;11.40;99.90;;;;;;5003752;28;20192;-54
2023/06/01 02:29:05;;;;;;;12.00;5.87;;;11.40;99.90;;;;;;5010626;28;20438;-56
2023/06/01 02:31:32;;;;;;;14.70;6.33;;;11.50;99.90;;;;;;5018574;28;20218;-54
2023/06/01 02:33:58;;;;;;;20.10;6.70;;;11.50;99.90;;;;;;5012567;28;20447;-55
2023/06/01 02:36:25;;;;;;;18.93;6.13;;;11.40;99.90;;;;;;5012963;28;20435;-55
2023/06/01 02:38:50;;;;;;;23.23;7.50;;;11.40;99.90;;;;;;5001890;28;20478;-55
2023/06/01 02:41:16;;;;;;;16.80;7.30;;;11.40;99.90;;;;;;5004899;28;20470;-55
2023/06/01 02:43:41;;;;;;;15.50;6.73;;;11.20;99.90;;;;;;5002216;28;20193;-56
2023/06/01 02:46:07;;;;;;;15.17;7.00;;;11.30;99.90;;;;;;5007111;28;20189;-56
2023/06/01 02:48:32;;;;;;;19.53;7.23;;;11.30;99.90;;;;;;5002473;28;20185;-56
2023/06/01 02:50:58;;;;;;;15.90;6.80;;;11.30;99.90;;;;;;5009990;28;20611;-55
2023/06/01 02:53:27;;;;;;;16.30;6.83;;;11.20;99.90;;;;;;5005699;28;20192;-56
2023/06/01 02:55:52;;;;;;;14.53;6.70;;;11.20;99.90;;;;;;5002679;28;20236;-56
2023/06/01 02:58:18;;;;;;;16.80;7.03;;;11.30;99.90;;;;;;5014092;28;20438;-55
2023/06/01 03:00:43;;;;;;;14.73;6.00;;;11.30;99.90;;;;;;5002913;28;20250;-55
2023/06/01 03:03:10;;;;;;;15.23;6.73;;;11.30;99.90;;;;;;5006630;28;20188;-56
2023/06/01 03:05:36;;;;;;;11.53;6.13;;;11.30;99.90;;;;;;5001533;28;20211;-56
2023/06/01 03:08:02;;;;;;;25.70;6.77;;;11.30;99.90;;;;;;5007856;28;20945;-55
2023/06/01 03:10:28;;;;;;;19.63;6.83;;;11.20;99.90;;;;;;5004972;28;20267;-56
2023/06/01 03:12:53;;;;;;;18.03;6.40;;;11.30;99.90;;;;;;5001477;28;21355;-56
2023/06/01 03:15:19;;;;;;;21.47;7.10;;;11.20;99.90;;;;;;5006908;28;20224;-56
2023/06/01 03:17:44;;;;;;;19.00;6.57;;;11.20;99.90;;;;;;5000588;28;20192;-56
2023/06/01 03:20:16;;;;;;;19.37;5.70;;;11.20;99.90;;;;;;5006074;28;20271;-56
2023/06/01 03:22:43;;;;;;;18.00;6.57;;;11.30;99.90;;;;;;5003737;28;20646;-55
2023/06/01 03:25:11;;;;;;;20.50;5.73;;;11.30;99.90;;;;;;5010572;28;20540;-55
2023/06/01 03:27:36;;;;;;;21.33;6.20;;;11.30;99.90;;;;;;5000965;28;20460;-56
2023/06/01 03:30:03;;;;;;;22.07;5.90;;;11.20;99.90;;;;;;5012557;28;20454;-56
2023/06/01 03:32:29;;;;;;;19.47;6.50;;;11.20;99.90;;;;;;5010125;28;20189;-56
2023/06/01 03:34:55;;;;;;;10.07;5.97;;;11.20;99.90;;;;;;5005069;28;20992;-56
2023/06/01 03:37:21;;;;;;;18.77;6.47;;;11.30;99.90;;;;;;5004639;28;20180;-56
2023/06/01 03:39:47;;;;;;;16.07;6.33;;;11.30;99.90;;;;;;5007858;28;20180;-56
2023/06/01 03:42:12;;;;;;;17.13;6.40;;;11.40;99.90;;;;;;5005616;28;20264;-55
2023/06/01 03:44:40;;;;;;;12.73;5.53;;;11.40;93.70;;;;;;5005789;28;20479;-56
2023/06/01 03:47:06;;;;;;;15.53;6.00;;;11.40;94.70;;;;;;5004046;28;20197;-56
2023/06/01 03:49:31;;;;;;;14.77;6.43;;;11.40;78.20;;;;;;5003445;28;20450;-56
2023/06/01 03:51:57;;;;;;;19.10;6.60;;;11.50;63.20;;;;;;5001350;28;20196;-56
2023/06/01 03:54:22;;;;;;;13.70;5.77;;;11.40;75.60;;;;;;5002249;28;20223;-56
2023/06/01 03:56:48;;;;;;;16.07;6.30;;;11.40;99.80;;;;;;5001595;28;20236;-56
2023/06/01 03:59:14;;;;;;;16.03;6.30;;;11.40;99.90;;;;;;5006533;28;20199;-56
2023/06/01 04:01:42;;;;;;;16.97;6.40;;;11.40;99.90;;;;;;5002994;28;20202;-56
2023/06/01 04:04:08;;;;;;;18.07;6.20;;;11.50;99.90;;;;;;5005091;28;20484;-56
2023/06/01 04:06:37;;;;;;;20.60;6.90;;;11.50;99.90;;;;;;5003596;28;20444;-56
2023/06/01 04:09:06;;;;;;;16.10;6.67;;;11.40;99.90;;;;;;5006701;28;20478;-56
2023/06/01 04:11:33;;;;;;;16.20;6.50;;;11.40;99.90;;;;;;5016566;28;20486;-56
2023/06/01 04:13:59;;;;;;;16.13;6.20;;;11.50;99.90;;;;;;5011029;28;20493;-56
2023/06/01 04:16:25;;;;;;;19.10;6.67;;;11.50;99.90;;;;;;5003525;28;20548;-56
2023/06/01 04:18:51;;;;;;;17.40;7.20;;;11.60;73.60;;;;;;5002890;28;20466;-56
2023/06/01 04:21:17;;;;;;;18.40;6.70;;;11.60;25.30;;;;;;5004177;28;20549;-56
2023/06/01 04:23:43;;;;;;;18.33;7.40;;;11.60;28.50;;;;;;5004232;28;20436;-57
2023/06/01 04:26:08;;;;;;;20.07;7.80;;;11.50;61.30;;;;;;4998610;28;20961;-57
2023/06/01 04:28:36;;;;;;;17.93;7.30;;;11.60;39.50;;;;;;5003843;28;21798;-56
2023/06/01 04:31:02;;;;;;;21.40;6.83;;;11.60;7.40;;;;;;5005299;28;20197;-56
2023/06/01 04:33:28;;;;;;;17.43;6.90;;;11.50;1.00;;;;;;5009930;28;20525;-57
2023/06/01 04:35:53;;;;;;;15.17;7.03;;;11.60;1.00;;;;;;5009417;28;21046;-56
2023/06/01 04:38:20;;;;;;;19.10;7.30;;;11.70;1.00;;;;;;5012408;28;20564;-56
2023/06/01 04:40:46;;;;;;;20.93;6.90;;;11.70;1.00;;;;;;5004365;28;20203;-56
2023/06/01 04:43:12;;;;;;;21.60;6.77;;;11.70;1.00;;;;;;5008840;28;20435;-56
2023/06/01 04:45:38;;;;;;;26.00;7.03;;;11.70;1.00;;;;;;5006559;28;20630;-56
2023/06/01 04:48:08;;;;;;;22.53;6.73;;;11.70;1.00;;;;;;5006123;28;20242;-56
2023/06/01 04:50:34;;;;;;;24.87;6.13;;;11.80;1.00;;;;;;5011583;28;20439;-56
2023/06/01 04:53:00;;;;;;;16.30;6.37;;;11.80;1.00;;;;;;5010587;28;20477;-56
2023/06/01 04:55:26;;;;;;;16.10;6.10;;;11.80;1.00;;;;;;5014497;28;20521;-56
2023/06/01 04:57:52;;;;;;;15.43;5.90;;;11.80;1.00;;;;;;5009169;28;20716;-56
2023/06/01 05:00:18;;;;;;;22.47;6.47;;;11.90;1.00;;;;;;5008064;28;20220;-56
2023/06/01 05:02:46;;;;;;;21.53;6.50;;;11.90;1.00;;;;;;5006815;28;20187;-56
2023/06/01 05:05:12;;;;;;;13.00;7.00;;;11.90;1.00;;;;;;5003040;28;20863;-56
2023/06/01 05:07:38;;;;;;;18.83;7.20;;;11.90;1.00;;;;;;5003538;28;20518;-56
2023/06/01 05:10:08;;;;;;;19.03;6.90;;;12.00;1.00;;;;;;5009694;28;20443;-56
2023/06/01 05:12:34;;;;;;;18.83;6.60;;;12.10;1.00;;;;;;5006104;28;20477;-56
2023/06/01 05:15:02;;;;;;;15.80;7.53;;;12.10;1.00;;;;;;5001274;28;20495;-56
2023/06/01 05:17:28;;;;;;;15.97;7.30;;;12.00;1.00;;;;;;5007263;28;20448;-56
2023/06/01 05:19:53;;;;;;;22.50;7.53;;;12.00;1.00;;;;;;5005369;28;20444;-56
2023/06/01 05:22:19;;;;;;;19.20;6.50;;;12.00;1.00;;;;;;5004735;28;20241;-56
2023/06/01 05:24:44;;;;;;;27.73;7.60;;;12.00;1.00;;;;;;5010849;28;20672;-57
2023/06/01 05:27:10;;;;;;;20.20;7.33;;;12.10;1.00;;;;;;5005127;28;20192;-56
2023/06/01 05:29:36;;;;;;;20.80;6.33;;;12.10;1.00;;;;;;5008997;28;20238;-56
2023/06/01 05:32:01;;;;;;;22.27;7.40;;;12.20;1.00;;;;;;5006108;28;20223;-56
2023/06/01 05:34:27;;;;;;;22.47;7.63;;;12.20;1.00;;;;;;5009049;28;20628;-56
2023/06/01 05:36:52;;;;;;;18.40;7.20;;;12.20;1.00;;;;;;5007058;28;20189;-56
2023/06/01 05:39:18;;;;;;;16.63;5.90;;;12.20;1.00;;;;;;5005112;28;20201;-56
2023/06/01 05:41:43;;;;;;;16.07;6.40;;;12.20;1.00;;;;;;5008032;28;20320;-56
2023/06/01 05:44:09;;;;;;;15.37;6.80;;;12.20;1.00;;;;;;5009255;28;20207;-56
2023/06/01 05:46:35;;;;;;;18.30;6.50;;;12.30;1.00;;;;;;5005779;28;20287;-56
2023/06/01 05:49:00;;;;;;;13.53;6.20;;;12.40;1.00;;;;;;5008536;28;20184;-57
2023/06/01 05:51:26;;;;;;;18.27;6.30;;;12.40;1.00;;;;;;5015218;28;20654;-56
2023/06/01 05:53:52;;;;;;;13.33;5.17;;;12.50;1.00;;;;;;5004585;28;20223;-56
2023/06/01 05:56:17;;;;;;;21.13;5.83;;;12.50;1.00;;;;;;5005107;28;20733;-56
2023/06/01 05:58:43;;;;;;;15.93;4.77;;;12.50;1.00;;;;;;4999693;28;20195;-56
2023/06/01 06:01:10;;;;;;;15.83;6.00;;;12.40;1.00;;;;;;4994321;28;20181;-56
2023/06/01 06:03:36;;;;;;;14.83;5.23;;;12.50;1.00;;;;;;5003942;28;20490;-56
2023/06/01 06:06:02;;;;;;;12.20;4.20;;;12.50;1.00;;;;;;5011158;28;20569;-56
2023/06/01 06:08:29;;;;;;;13.73;5.53;;;12.40;1.00;;;;;;5005755;28;20458;-56
2023/06/01 06:10:54;;;;;;;19.43;5.10;;;12.50;1.00;;;;;;5005994;28;20455;-55
2023/06/01 06:13:20;;;;;;;15.50;5.23;;;12.60;1.00;;;;;;5007322;28;20444;-56
2023/06/01 06:15:45;;;;;;;16.67;5.20;;;12.60;1.00;;;;;;5005512;28;20220;-57
2023/06/01 06:18:11;;;;;;;15.00;5.40;;;12.50;1.00;;;;;;5007266;28;20184;-54
2023/06/01 06:20:37;;;;;;;19.13;5.63;;;12.60;1.00;;;;;;5001802;28;20189;-57
2023/06/01 06:23:02;;;;;;;17.37;5.33;;;12.50;1.00;;;;;;5004482;28;20191;-54
2023/06/01 06:25:28;;;;;;;13.30;5.20;;;12.60;1.00;;;;;;5001799;28;20192;-54
2023/06/01 06:27:53;;;;;;;14.50;5.57;;;12.60;1.00;;;;;;5006860;28;20238;-56
2023/06/01 06:30:19;;;;;;;15.90;5.00;;;12.70;1.00;;;;;;5004299;28;20192;-56
2023/06/01 06:32:45;;;;;;;10.70;5.13;;;12.70;1.00;;;;;;5007547;28;20279;-58
2023/06/01 06:35:13;;;;;;;11.03;5.00;;;12.50;1.00;;;;;;5008470;28;20318;-59
2023/06/01 06:37:41;;;;;;;15.60;5.80;;;12.60;1.00;;;;;;5002325;28;20656;-59
2023/06/01 06:40:08;;;;;;;16.80;6.77;;;12.60;1.00;;;;;;5009025;28;20447;-59
2023/06/01 06:42:33;;;;;;;14.07;6.03;;;12.60;1.00;;;;;;5008361;28;20458;-59
2023/06/01 06:44:59;;;;;;;16.07;5.93;;;12.60;1.00;;;;;;5001423;28;20443;-59
2023/06/01 06:47:25;;;;;;;18.30;5.40;;;12.60;1.00;;;;;;5005042;28;20590;-58
2023/06/01 06:49:51;;;;;;;13.87;5.10;;;12.60;1.00;;;;;;5002789;28;20455;-58
2023/06/01 06:52:17;;;;;;;13.43;5.43;;;12.70;1.00;;;;;;5002668;28;20562;-58
2023/06/01 06:54:43;;;;;;;21.00;7.30;;;12.70;1.00;;;;;;5007171;28;20224;-58
2023/06/01 06:57:09;;;;;;;25.97;10.77;;;12.90;1.00;;;;;;5003632;28;20578;-58
2023/06/01 06:59:35;;;;;;;14.30;5.00;;;12.90;1.00;;;;;;5001971;28;20438;-57
2023/06/01 07:02:00;;;;;;;13.10;4.60;;;13.00;1.00;;;;;;5002123;28;20436;-58
2023/06/01 07:04:28;;;;;;;15.50;4.70;;;13.10;1.00;;;;;;5007211;28;20188;-59
2023/06/01 07:06:53;;;;;;;12.97;4.80;;;13.20;1.00;;;;;;5007713;28;20188;-58
2023/06/01 07:09:19;;;;;;;19.10;4.80;;;13.10;1.00;;;;;;5011266;28;20459;-58
2023/06/01 07:11:45;;;;;;;17.03;4.37;;;13.10;1.00;;;;;;5004919;28;20201;-58
2023/06/01 07:14:11;;;;;;;18.53;5.13;;;13.10;1.00;;;;;;5002621;28;20602;-59
2023/06/01 07:16:36;;;;;;;16.97;4.40;;;13.20;1.00;;;;;;5007647;28;20235;-58
2023/06/01 07:19:02;;;;;;;14.43;5.00;;;13.20;1.00;;;;;;5001776;28;20446;-59
2023/06/01 07:21:28;;;;;;;18.73;4.90;;;13.30;1.00;;;;;;5003362;28;20624;-57
2023/06/01 07:23:54;;;;;;;19.60;4.47;;;13.40;1.00;;;;;;5001253;28;20526;-57
2023/06/01 07:26:20;;;;;;;9.53;4.20;;;13.50;1.00;;;;;;5007097;28;20187;-57
2023/06/01 07:28:46;;;;;;;12.50;4.97;;;13.40;1.00;;;;;;5003583;28;20239;-59
2023/06/01 07:31:11;;;;;;;15.70;4.50;;;13.50;1.00;;;;;;5003799;28;20447;-57
2023/06/01 07:33:37;;;;;;;15.97;5.20;;;13.40;1.00;;;;;;5003196;28;20197;-59
2023/06/01 07:36:04;;;;;;;15.23;5.07;;;13.50;1.00;;;;;;5002093;28;20687;-58
2023/06/01 07:38:31;;;;;;;12.77;5.00;;;13.40;1.00;;;;;;5004366;28;20224;-57
2023/06/01 07:40:56;;;;;;;16.00;5.07;;;13.60;1.00;;;;;;5001782;28;20483;-58
2023/06/01 07:43:22;;;;;;;21.93;5.90;;;13.60;1.00;;;;;;5003809;28;20434;-59
2023/06/01 07:45:47;;;;;;;14.67;5.40;;;13.50;1.00;;;;;;5001237;28;20271;-58
2023/06/01 07:48:13;;;;;;;17.87;5.50;;;13.50;1.00;;;;;;5001664;28;20183;-57
2023/06/01 07:50:39;;;;;;;15.27;5.87;;;13.40;1.00;;;;;;5001484;28;20292;-57
2023/06/01 07:53:04;;;;;;;11.50;6.30;;;13.50;1.00;;;;;;5003194;28;20277;-57
2023/06/01 07:55:30;;;;;;;18.80;6.50;;;13.40;1.00;;;;;;5001951;28;20227;-58
2023/06/01 07:57:55;;;;;;;12.20;5.53;;;13.30;1.00;;;;;;5002287;28;20192;-57
2023/06/01 08:00:22;;;;;;;17.23;5.20;;;13.40;1.00;;;;;;5004273;28;20558;-57
2023/06/01 08:02:47;;;;;;;12.33;4.50;;;13.50;1.00;;;;;;5001041;28;20191;-59
2023/06/01 08:05:18;;;;;;;18.13;4.60;;;13.50;1.00;;;;;;5009555;28;20441;-57
2023/06/01 08:07:45;;;;;;;11.70;5.30;;;13.60;1.00;;;;;;5004750;28;20189;-58
2023/06/01 08:10:11;;;;;;;11.83;4.40;;;13.80;1.00;;;;;;5004408;28;21010;-59
2023/06/01 08:12:36;;;;;;;14.03;4.20;;;13.70;1.00;;;;;;5007036;28;20452;-58
2023/06/01 08:15:03;;;;;;;17.50;4.30;;;13.80;1.00;;;;;;5005641;28;20314;-59
2023/06/01 08:17:29;;;;;;;12.13;4.60;;;13.70;1.00;;;;;;5010198;28;20283;-58
2023/06/01 08:19:56;;;;;;;10.80;4.10;;;13.80;1.00;;;;;;5004567;28;20472;-58
2023/06/01 08:22:25;;;;;;;18.50;4.23;;;13.90;1.00;;;;;;5007285;28;20437;-58
2023/06/01 08:24:52;;;;;;;10.50;4.20;;;14.10;1.00;;;;;;5004511;28;20945;-59
2023/06/01 08:27:21;;;;;;;12.03;3.87;;;14.20;1.00;;;;;;5005647;28;20889;-59
2023/06/01 08:29:48;;;;;;;11.73;4.27;;;14.30;1.00;;;;;;5007390;28;20807;-59
2023/06/01 08:32:15;;;;;;;11.90;4.20;;;14.40;1.00;;;;;;5007593;28;20609;-58
2023/06/01 08:34:43;;;;;;;15.40;4.50;;;14.40;1.00;;;;;;5009011;28;20848;-59
2023/06/01 08:37:08;;;;;;;11.90;4.37;;;14.60;1.00;;;;;;5010080;28;20443;-59
2023/06/01 08:39:34;;;;;;;11.60;4.07;;;14.60;1.00;;;;;;5006580;28;20442;-59
2023/06/01 08:42:13;;;;;;;15.07;4.90;;;14.60;1.00;;;;;;5005177;28;20660;-59
2023/06/01 08:44:40;;;;;;;18.37;3.90;;;14.50;1.00;;;;;;5006520;28;20507;-59
2023/06/01 08:47:07;;;;;;;13.80;3.37;;;14.60;1.00;;;;;;5006602;28;20537;-59
2023/06/01 08:49:35;;;;;;;10.03;3.90;;;14.50;1.00;;;;;;5004933;28;20461;-60
2023/06/01 08:52:04;;;;;;;25.67;4.93;;;14.50;1.00;;;;;;5005498;28;20468;-59
2023/06/01 08:54:30;;;;;;;12.60;3.83;;;14.30;1.00;;;;;;5006399;28;20483;-59
2023/06/01 08:57:00;;;;;;;13.90;4.33;;;14.20;1.00;;;;;;5004232;28;20475;-59
2023/06/01 08:59:25;;;;;;;10.40;3.30;;;14.00;1.00;;;;;;5005470;28;20925;-59
2023/06/01 09:01:52;;;;;;;13.30;4.07;;;14.10;1.00;;;;;;5006407;28;20445;-59
2023/06/01 09:04:18;;;;;;;9.23;3.40;;;14.20;1.00;;;;;;5004354;28;20189;-59
2023/06/01 09:06:44;;;;;;;13.53;4.20;;;14.20;1.00;;;;;;5006380;28;20836;-60
2023/06/01 09:09:12;;;;;;;16.40;3.40;;;14.30;1.00;;;;;;5003010;28;20235;-60
2023/06/01 09:11:38;;;;;;;12.83;3.97;;;14.30;1.00;;;;;;5005992;28;20184;-60
2023/06/01 09:14:22;;;;;;;13.90;3.50;;;14.30;1.00;;;;;;5003630;28;20443;-60
2023/06/01 09:16:49;;;;;;;15.60;4.30;;;14.10;1.00;;;;;;5005847;28;20383;-60
2023/06/01 09:19:15;;;;;;;12.50;3.80;;;14.20;1.00;;;;;;5008746;28;20433;-60
2023/06/01 09:21:58;;;;;;;16.53;4.50;;;14.30;1.00;;;;;;5012494;28;20439;-60
2023/06/01 09:24:24;;;;;;;9.37;3.83;;;14.40;1.00;;;;;;5003172;28;20431;-61
2023/06/01 09:26:51;;;;;;;13.50;4.13;;;14.30;1.00;;;;;;5009570;28;20435;-61
2023/06/01 09:29:17;;;;;;;13.50;3.73;;;14.30;1.00;;;;;;5003501;28;20911;-60
2023/06/01 09:31:47;;;;;;;12.80;4.03;;;14.30;1.00;;;;;;5006336;28;20922;-60
2023/06/01 09:34:21;;;;;;;13.17;3.70;;;14.40;1.00;;;;;;5004970;28;20966;-60
2023/06/01 09:36:51;;;;;;;9.80;3.73;;;14.80;1.00;;;;;;5002870;28;21008;-59
2023/06/01 09:39:19;;;;;;;13.83;3.50;;;15.00;1.00;;;;;;5005031;28;20438;-59
2023/06/01 09:41:58;;;;;;;20.20;4.27;;;14.90;1.00;;;;;;5006026;28;20444;-61
2023/06/01 09:44:25;;;;;;;16.53;4.20;;;15.10;1.00;;;;;;5003885;28;20452;-60
2023/06/01 09:46:56;;;;;;;8.30;4.03;;;15.10;1.00;;;;;;5005241;28;20946;-61
2023/06/01 09:49:26;;;;;;;8.87;4.30;;;15.20;1.00;;;;;;5003728;28;20495;-61
2023/06/01 09:52:14;;;;;;;11.87;4.13;;;15.20;1.00;;;;;;5006508;28;20871;-61
2023/06/01 09:54:47;;;;;;;14.73;4.23;;;15.30;1.00;;;;;;5009294;28;20477;-60
2023/06/01 09:57:19;;;;;;;15.50;4.37;;;15.40;1.00;;;;;;5009060;28;20495;-61
2023/06/01 09:59:46;;;;;;;12.30;4.80;;;15.40;1.00;;;;;;5001157;28;20434;-61
2023/06/01 10:02:21;;;;;;;9.40;3.50;;;15.40;1.00;;;;;;5007782;28;20443;-60
2023/06/01 10:04:49;;;;;;;21.60;4.43;;;15.30;1.00;;;;;;5007771;28;20544;-61
2023/06/01 10:07:16;;;;;;;15.03;4.10;;;15.50;1.00;;;;;;5002131;28;20445;-61
2023/06/01 10:09:48;;;;;;;14.43;4.17;;;15.60;1.00;;;;;;5008447;28;20441;-61
2023/06/01 10:12:14;;;;;;;15.03;4.40;;;15.50;1.00;;;;;;5009240;28;20436;-61
2023/06/01 10:14:40;;;;;;;13.80;4.17;;;15.60;1.00;;;;;;5004688;28;20487;-63
2023/06/01 10:17:06;;;;;;;19.50;4.60;;;15.40;1.00;;;;;;5004836;28;20490;-60
2023/06/01 10:19:32;;;;;;;14.83;3.80;;;15.30;1.00;;;;;;5005458;28;20193;-60
2023/06/01 10:21:58;;;;;;;8.80;3.90;;;15.30;1.00;;;;;;5004438;28;20455;-60
2023/06/01 10:24:26;;;;;;;11.07;4.20;;;15.20;1.00;;;;;;5002856;28;20441;-61
2023/06/01 10:27:01;;;;;;;20.27;5.70;;;15.20;1.00;;;;;;5005838;28;20530;-61
2023/06/01 10:29:29;;;;;;;13.80;4.33;;;15.30;1.00;;;;;;5004283;28;20930;-62
2023/06/01 10:31:55;;;;;;;17.47;4.03;;;15.50;1.00;;;;;;5001659;28;20460;-60
2023/06/01 10:34:38;;;;;;;11.50;3.90;;;15.30;1.00;;;;;;5006857;28;20470;-63
2023/06/01 10:37:03;;;;;;;14.20;3.80;;;15.40;1.00;;;;;;5004019;28;20527;-60
2023/06/01 10:39:31;;;;;;;11.60;3.83;;;15.20;1.00;;;;;;5008064;28;20538;-60
2023/06/01 10:42:18;;;;;;;10.03;3.30;;;15.60;1.00;;;;;;5007842;28;20194;-61
2023/06/01 10:44:47;;;;;;;12.53;3.47;;;16.00;1.00;;;;;;5002027;28;21017;-61
2023/06/01 10:47:12;;;;;;;11.70;3.63;;;16.30;1.00;;;;;;5007348;28;20445;-60
2023/06/01 10:49:50;;;;;;;9.40;3.40;;;16.60;1.00;;;;;;5001890;28;20488;-62
2023/06/01 10:52:38;;;;;;;14.30;3.53;;;16.80;1.00;;;;;;5003292;28;20681;-60
2023/06/01 10:55:06;;;;;;;7.93;3.03;;;16.50;1.00;;;;;;5003201;28;20510;-61
2023/06/01 10:57:39;;;;;;;9.83;3.60;;;16.30;1.00;;;;;;5003230;28;20508;-61
2023/06/01 11:00:18;;;;;;;12.07;3.33;;;16.30;1.00;;;;;;5001757;28;20432;-61
2023/06/01 11:02:56;;;;;;;9.50;3.53;;;16.40;1.00;;;;;;5001490;28;20490;-62
2023/06/01 11:05:47;;;;;;;19.50;4.57;;;16.20;1.00;;;;;;5003427;28;20442;-61
2023/06/01 11:08:19;;;;;;;13.00;3.50;;;16.30;1.00;;;;;;5004427;28;20440;-62
2023/06/01 11:10:54;;;;;;;14.03;3.90;;;16.40;1.00;;;;;;5001414;28;20451;-60
2023/06/01 11:13:29;;;;;;;14.70;3.73;;;16.50;1.00;;;;;;5003588;28;20535;-61
2023/06/01 11:18:58;;;;;;;10.60;3.57;;;16.50;1.00;;;;;;5011000;28;20459;-61
2023/06/01 11:21:40;;;;;;;12.50;3.80;;;16.50;1.00;;;;;;5004274;28;20450;-61
2023/06/01 11:24:18;;;;;;;14.63;3.20;;;16.10;1.00;;;;;;5002199;28;20440;-61
2023/06/01 11:26:46;;;;;;;14.20;3.27;;;16.20;1.00;;;;;;5006128;28;20844;-61
2023/06/01 11:29:21;;;;;;;13.37;3.83;;;16.20;1.00;;;;;;5003482;28;20447;-59
2023/06/01 11:31:55;;;;;;;9.53;3.63;;;15.90;1.00;;;;;;5006550;28;20475;-60
2023/06/01 11:34:33;;;;;;;16.90;3.90;;;15.90;1.00;;;;;;5006502;28;20439;-62
2023/06/01 11:36:59;;;;;;;10.63;3.20;;;16.00;1.00;;;;;;5001055;28;20647;-61
2023/06/01 11:39:28;;;;;;;13.40;3.53;;;16.10;1.00;;;;;;5006105;28;20461;-58
2023/06/01 11:42:13;;;;;;;9.93;3.10;;;16.30;1.00;;;;;;5005725;28;20216;-61
2023/06/01 11:44:40;;;;;;;9.63;3.03;;;16.10;1.00;;;;;;5005530;28;20452;-61
2023/06/01 11:47:07;;;;;;;14.33;2.80;;;15.90;1.00;;;;;;5008842;28;20452;-61
2023/06/01 11:49:50;;;;;;;8.20;3.20;;;15.60;1.00;;;;;;5012206;28;20444;-60
2023/06/01 11:52:16;;;;;;;9.40;2.60;;;15.80;1.00;;;;;;5007178;28;20947;-60
2023/06/01 11:54:42;;;;;;;11.47;3.33;;;15.90;1.00;;;;;;5011059;28;20533;-60
2023/06/01 11:57:08;;;;;;;8.30;3.00;;;16.20;1.00;;;;;;5006843;28;20825;-60
2023/06/01 11:59:42;;;;;;;15.80;3.60;;;16.00;1.00;;;;;;5007436;28;20193;-60
2023/06/01 12:02:29;;;;;;;10.83;3.17;;;15.70;1.00;;;;;;5016747;28;20433;-59
2023/06/01 12:05:06;;;;;;;10.83;3.17;;;15.60;1.00;;;;;;5007854;28;20955;-60
2023/06/01 12:07:44;;;;;;;9.20;2.83;;;15.70;1.00;;;;;;5006602;28;20439;-59
2023/06/01 12:10:13;;;;;;;8.83;3.20;;;15.90;1.00;;;;;;5003397;28;21028;-61
2023/06/01 12:12:39;;;;;;;14.97;2.70;;;16.10;1.00;;;;;;4988632;28;20506;-58
2023/06/01 12:15:06;;;;;;;12.73;2.70;;;16.20;1.00;;;;;;5006933;28;20484;-61
2023/06/01 12:17:52;;;;;;;6.90;2.50;;;16.50;1.00;;;;;;5009359;28;20629;-60
2023/06/01 12:20:45;;;;;;;13.27;3.20;;;16.60;1.00;;;;;;5007473;28;20452;-61
2023/06/01 12:23:12;;;;;;;8.43;2.10;;;16.70;1.00;;;;;;5005711;28;20444;-60
2023/06/01 12:25:55;;;;;;;13.83;2.67;;;16.90;1.00;;;;;;5007068;28;20458;-62
2023/06/01 12:28:23;;;;;;;10.70;2.80;;;16.90;1.00;;;;;;5010490;28;20482;-60
2023/06/01 12:30:49;;;;;;;9.43;2.70;;;17.10;1.00;;;;;;5017640;28;20423;-59
2023/06/01 12:33:34;;;;;;;11.80;2.40;;;17.00;1.00;;;;;;5016667;28;20181;-59
2023/06/01 12:36:04;;;;;;;9.57;2.47;;;16.80;1.00;;;;;;5020948;28;20529;-60
2023/06/01 12:38:36;;;;;;;15.67;3.10;;;16.70;1.00;;;;;;5027091;28;20500;-59
2023/06/01 12:41:12;;;;;;;10.38;2.40;;;16.50;1.00;;;;;;5016141;28;20499;-60
2023/06/01 12:43:38;;;;;;;16.30;3.07;;;16.80;1.00;;;;;;5011225;28;20195;-61
2023/06/01 12:46:08;;;;;;;15.80;3.17;;;17.10;1.00;;;;;;5016544;28;20425;-60
2023/06/01 12:48:37;;;;;;;8.50;3.23;;;17.40;1.00;;;;;;5015906;28;20827;-61
2023/06/01 12:51:03;;;;;;;9.97;2.50;;;18.00;1.00;;;;;;5015335;28;20441;-62
2023/06/01 12:53:29;;;;;;;6.87;2.17;;;18.10;1.00;;;;;;5009693;28;20428;-58
2023/06/01 12:55:55;;;;;;;13.83;2.63;;;17.90;1.00;;;;;;5010792;28;20501;-60